Time;durP1;ratioP1;P1;durP2;ratioP2;P2;SDS_P1;SDS_P2;PMS_P1;PMS_P2;Temp;Humidity;BMP_temperature;BMP_pressure;BME280_temperature;BME280_humidity;BME280_pressure;Samples;Min_cycle;Max_cycle;Signal;HPM_P1;HPM_P2
2023/11/26 00:00:10;;;;;;;4.88;2.72;;;;;;;-146.61;100.00;58846.50;6208634;23;20025;-83
2023/11/26 00:02:44;;;;;;;6.78;3.45;;;;;;;-146.61;100.00;58846.50;6205706;23;20027;-83
2023/11/26 00:05:19;;;;;;;6.13;3.20;;;;;;;-146.61;100.00;58846.50;6205484;23;20029;-82
2023/11/26 00:07:46;;;;;;;6.65;2.28;;;;;;;-146.61;100.00;58846.50;6200880;23;20024;-82
2023/11/26 00:10:15;;;;;;;2.92;2.15;;;;;;;-146.61;100.00;58846.50;6204279;23;20024;-83
2023/11/26 00:12:44;;;;;;;5.85;2.53;;;;;;;-146.61;100.00;58846.50;6203720;23;20090;-83
2023/11/26 00:15:13;;;;;;;9.38;3.55;;;;;;;-146.61;100.00;58846.50;6204699;23;20052;-82
2023/11/26 00:17:40;;;;;;;3.92;3.15;;;;;;;-146.61;100.00;58846.50;6228013;23;20020;-81
2023/11/26 00:20:07;;;;;;;6.03;2.65;;;;;;;-146.61;100.00;58846.50;6204006;23;20017;-83
2023/11/26 00:22:34;;;;;;;5.35;3.30;;;;;;;-146.61;100.00;58846.50;6204138;23;20028;-83
2023/11/26 00:25:01;;;;;;;6.47;2.60;;;;;;;-146.61;100.00;58846.50;6230584;23;20056;-83
2023/11/26 00:27:28;;;;;;;4.32;3.83;;;;;;;-146.61;100.00;58846.50;6207322;23;20107;-84
2023/11/26 00:29:58;;;;;;;6.72;2.70;;;;;;;-146.61;100.00;58846.50;6208850;23;20063;-84
2023/11/26 00:32:26;;;;;;;5.25;2.67;;;;;;;-146.61;100.00;58846.50;6235354;23;20166;-84
2023/11/26 00:34:55;;;;;;;2.58;2.22;;;;;;;-146.61;100.00;58846.50;6211483;23;20132;-84
2023/11/26 00:37:25;;;;;;;7.35;3.58;;;;;;;-146.61;100.00;58846.50;6209912;23;20407;-85
2023/11/26 00:39:55;;;;;;;5.95;1.90;;;;;;;-146.61;100.00;58846.50;6208529;23;20024;-83
2023/11/26 00:42:29;;;;;;;6.10;2.20;;;;;;;-146.61;100.00;58846.50;6210149;23;20608;-83
2023/11/26 00:44:59;;;;;;;6.85;2.53;;;;;;;-146.61;100.00;58846.50;6209835;23;20032;-85
2023/11/26 00:47:28;;;;;;;8.25;2.90;;;;;;;-146.61;100.00;58846.50;6208863;23;20088;-84
2023/11/26 00:50:01;;;;;;;6.47;3.08;;;;;;;-146.61;100.00;58846.50;6235163;23;20024;-83
2023/11/26 00:52:28;;;;;;;4.78;2.88;;;;;;;-146.61;100.00;58846.50;6235137;23;20028;-84
2023/11/26 00:54:55;;;;;;;6.65;2.83;;;;;;;-146.61;100.00;58846.50;6209849;23;20035;-82
2023/11/26 00:57:22;;;;;;;5.80;2.92;;;;;;;-146.61;100.00;58846.50;6207753;23;20039;-82
2023/11/26 00:59:49;;;;;;;3.15;2.58;;;;;;;-146.61;100.00;58846.50;6208194;23;20083;-83
2023/11/26 01:02:15;;;;;;;9.18;2.75;;;;;;;-146.61;100.00;58846.50;6211285;23;20320;-83
2023/11/26 01:04:42;;;;;;;2.50;2.22;;;;;;;-146.61;100.00;58846.50;6211605;23;20056;-83
2023/11/26 01:07:08;;;;;;;5.65;3.20;;;;;;;-146.61;100.00;58846.50;6210467;23;20032;-83
2023/11/26 01:09:37;;;;;;;5.60;2.85;;;;;;;-146.61;100.00;58846.50;6207934;23;20060;-84
2023/11/26 01:12:07;;;;;;;4.78;1.77;;;;;;;-146.61;100.00;58846.50;6210598;23;20019;-85
2023/11/26 01:14:37;;;;;;;6.38;2.25;;;;;;;-146.61;100.00;58846.50;6211874;23;20484;-85
2023/11/26 01:17:07;;;;;;;7.65;3.10;;;;;;;-146.61;100.00;58846.50;6210319;23;20071;-85
2023/11/26 01:19:36;;;;;;;6.60;2.55;;;;;;;-146.61;100.00;58846.50;6210516;23;20031;-83
2023/11/26 01:22:06;;;;;;;7.55;2.65;;;;;;;-146.61;100.00;58846.50;6210953;23;20153;-83
2023/11/26 01:24:36;;;;;;;9.80;3.38;;;;;;;-146.61;100.00;58846.50;6210967;23;20442;-85
2023/11/26 01:27:04;;;;;;;6.75;2.60;;;;;;;-146.61;100.00;58846.50;6237234;23;20073;-83
2023/11/26 01:29:41;;;;;;;6.72;2.70;;;;;;;-146.61;100.00;58846.50;6236749;23;20052;-83
2023/11/26 01:32:11;;;;;;;5.10;3.13;;;;;;;-146.61;100.00;58846.50;6211938;23;20090;-85
2023/11/26 01:34:41;;;;;;;8.18;2.78;;;;;;;-146.61;100.00;58846.50;6210767;23;20048;-87
2023/11/26 01:37:11;;;;;;;4.55;2.65;;;;;;;-146.61;100.00;58846.50;6209577;23;20427;-84
2023/11/26 01:39:39;;;;;;;5.57;2.25;;;;;;;-146.61;100.00;58846.50;6207893;23;20051;-85
2023/11/26 01:42:09;;;;;;;2.30;2.10;;;;;;;-146.61;100.00;58846.50;6214237;23;20048;-83
2023/11/26 01:44:36;;;;;;;4.80;2.58;;;;;;;-146.61;100.00;58846.50;6212127;23;20023;-83
2023/11/26 01:47:06;;;;;;;5.03;2.83;;;;;;;-146.61;100.00;58846.50;6211242;23;20387;-84
2023/11/26 01:49:34;;;;;;;9.70;3.35;;;;;;;-146.61;100.00;58846.50;6210621;23;20028;-83
2023/11/26 01:52:02;;;;;;;6.28;3.15;;;;;;;-146.61;100.00;58846.50;6209584;23;20040;-84
2023/11/26 01:54:31;;;;;;;19.20;3.40;;;;;;;-146.61;100.00;58846.50;6211908;23;20434;-84
2023/11/26 01:57:04;;;;;;;11.68;2.63;;;;;;;-146.61;100.00;58846.50;6210406;23;20020;-84
2023/11/26 01:59:31;;;;;;;6.88;3.38;;;;;;;-146.61;100.00;58846.50;6236193;23;20020;-85
2023/11/26 02:02:00;;;;;;;5.10;2.88;;;;;;;-146.61;100.00;58846.50;6235176;23;20549;-83
2023/11/26 02:04:32;;;;;;;4.93;3.65;;;;;;;-146.61;100.00;58846.50;6212086;23;20031;-84
2023/11/26 02:07:02;;;;;;;6.00;3.03;;;;;;;-146.61;100.00;58846.50;6234808;23;20345;-83
2023/11/26 02:09:28;;;;;;;9.10;2.90;;;;;;;-146.61;100.00;58846.50;6212772;23;20016;-82
2023/11/26 02:11:55;;;;;;;6.25;3.38;;;;;;;-146.61;100.00;58846.50;6209251;23;20020;-84
2023/11/26 02:14:25;;;;;;;4.45;3.45;;;;;;;-146.61;100.00;58846.50;6211227;23;20079;-83
2023/11/26 02:16:54;;;;;;;5.75;3.28;;;;;;;-146.61;100.00;58846.50;6208801;23;20083;-83
2023/11/26 02:19:37;;;;;;;3.80;3.10;;;;;;;-146.61;100.00;58846.50;6210194;23;20028;-82
2023/11/26 02:22:07;;;;;;;6.32;2.60;;;;;;;-146.61;100.00;58846.50;6211631;23;20075;-83
2023/11/26 02:24:47;;;;;;;4.40;2.88;;;;;;;-146.61;100.00;58846.50;6237174;23;20035;-85
2023/11/26 02:27:15;;;;;;;7.80;5.18;;;;;;;-146.61;100.00;58846.50;6210460;23;20060;-85
2023/11/26 02:29:47;;;;;;;3.95;3.28;;;;;;;-146.61;100.00;58846.50;6210803;23;20084;-86
2023/11/26 02:32:14;;;;;;;6.45;3.45;;;;;;;-146.61;100.00;58846.50;6235271;23;20020;-85
2023/11/26 02:34:41;;;;;;;5.47;3.53;;;;;;;-146.61;100.00;58846.50;6213786;23;20020;-85
2023/11/26 02:37:07;;;;;;;6.53;3.38;;;;;;;-146.61;100.00;58846.50;6211323;23;20031;-84
2023/11/26 02:39:39;;;;;;;5.50;3.60;;;;;;;-146.61;100.00;58846.50;6214322;23;20051;-82
2023/11/26 02:42:06;;;;;;;4.75;2.97;;;;;;;-146.61;100.00;58846.50;6210786;23;20031;-83
2023/11/26 02:44:39;;;;;;;6.63;3.92;;;;;;;-146.61;100.00;58846.50;6211214;23;20024;-84
2023/11/26 02:47:10;;;;;;;6.07;3.30;;;;;;;-146.61;100.00;58846.50;6211466;23;20028;-83
2023/11/26 02:49:38;;;;;;;6.35;3.28;;;;;;;-146.61;100.00;58846.50;6239220;23;20020;-84
2023/11/26 02:52:04;;;;;;;10.48;4.05;;;;;;;-146.61;100.00;58846.50;6216307;23;20036;-84
2023/11/26 02:54:40;;;;;;;6.78;3.15;;;;;;;-146.61;100.00;58846.50;6212587;23;20032;-85
2023/11/26 02:57:07;;;;;;;8.27;3.03;;;;;;;-146.61;100.00;58846.50;6212639;23;20047;-83
2023/11/26 02:59:35;;;;;;;7.50;3.72;;;;;;;-146.61;100.00;58846.50;6212918;23;20051;-84
2023/11/26 03:02:02;;;;;;;11.13;2.90;;;;;;;-146.61;100.00;58846.50;6211953;23;20025;-85
2023/11/26 03:04:32;;;;;;;7.70;3.20;;;;;;;-146.61;100.00;58846.50;6212252;23;20046;-85
2023/11/26 03:07:03;;;;;;;4.75;2.90;;;;;;;-146.61;100.00;58846.50;6212007;23;20021;-84
2023/11/26 03:12:56;;;;;;;3.17;2.88;;;;;;;-146.61;100.00;58846.50;6237922;23;20393;-81
2023/11/26 03:15:18;;;;;;;9.95;3.33;;;;;;;-146.61;100.00;58846.50;6211268;23;20059;-84
2023/11/26 03:17:45;;;;;;;4.97;2.97;;;;;;;-146.61;100.00;58846.50;6209161;23;20513;-83
2023/11/26 03:20:16;;;;;;;8.85;3.17;;;;;;;-146.61;100.00;58846.50;6211886;23;20028;-83
2023/11/26 03:22:43;;;;;;;8.05;2.88;;;;;;;-146.61;100.00;58846.50;6212085;23;20600;-85
2023/11/26 03:25:10;;;;;;;4.07;3.50;;;;;;;-146.61;100.00;58846.50;6236979;23;20024;-85
2023/11/26 03:27:38;;;;;;;9.63;3.72;;;;;;;-146.61;100.00;58846.50;6214155;23;20047;-85
2023/11/26 03:30:07;;;;;;;8.75;4.47;;;;;;;-146.61;100.00;58846.50;6238208;23;20046;-83
2023/11/26 03:32:37;;;;;;;4.03;3.38;;;;;;;-146.61;100.00;58846.50;6212716;23;20031;-82
2023/11/26 03:35:06;;;;;;;8.68;3.00;;;;;;;-146.61;100.00;58846.50;6211203;23;20033;-83
2023/11/26 03:37:41;;;;;;;5.50;3.38;;;;;;;-146.61;100.00;58846.50;6235883;23;20028;-84
2023/11/26 03:40:08;;;;;;;7.25;3.42;;;;;;;-146.61;100.00;58846.50;6236298;23;20055;-83
2023/11/26 03:42:40;;;;;;;9.43;3.15;;;;;;;-146.61;100.00;58846.50;6210681;23;20079;-82
2023/11/26 03:45:11;;;;;;;3.28;3.03;;;;;;;-146.61;100.00;58846.50;6210220;23;20016;-82
2023/11/26 03:47:41;;;;;;;7.30;3.17;;;;;;;-146.61;100.00;58846.50;6211512;23;20353;-83
2023/11/26 03:50:12;;;;;;;4.63;3.83;;;;;;;-146.61;100.00;58846.50;6236155;23;20031;-83
2023/11/26 03:52:40;;;;;;;6.18;3.63;;;;;;;-146.61;100.00;58846.50;6236529;23;20410;-83
2023/11/26 03:55:08;;;;;;;4.80;3.20;;;;;;;-146.61;100.00;58846.50;6236889;23;20025;-82
2023/11/26 03:57:37;;;;;;;6.35;3.75;;;;;;;-146.61;100.00;58846.50;6211187;23;20026;-84
2023/11/26 04:00:08;;;;;;;4.90;3.10;;;;;;;-146.61;100.00;58846.50;6236990;23;20028;-83
2023/11/26 04:02:36;;;;;;;8.45;3.67;;;;;;;-146.61;100.00;58846.50;6212249;23;20031;-83
2023/11/26 04:05:04;;;;;;;4.97;2.67;;;;;;;-146.61;100.00;58846.50;6236891;23;20024;-84
2023/11/26 04:07:38;;;;;;;4.88;3.47;;;;;;;-146.61;100.00;58846.50;6211478;23;20021;-84
2023/11/26 04:10:06;;;;;;;7.47;3.15;;;;;;;-146.61;100.00;58846.50;6210008;23;20028;-85
2023/11/26 04:12:34;;;;;;;3.88;3.53;;;;;;;-146.61;100.00;58846.50;6233186;22;20021;-83
2023/11/26 04:15:05;;;;;;;6.60;4.25;;;;;;;-146.61;100.00;58846.50;6213817;23;20100;-85
2023/11/26 04:17:32;;;;;;;6.65;3.47;;;;;;;-146.61;100.00;58846.50;6210858;23;20020;-84
2023/11/26 04:19:59;;;;;;;6.28;4.03;;;;;;;-146.61;100.00;58846.50;6212690;23;20082;-83
2023/11/26 04:22:28;;;;;;;4.07;3.60;;;;;;;-146.61;100.00;58846.50;6213229;23;20035;-83
2023/11/26 04:24:58;;;;;;;4.75;3.50;;;;;;;-146.61;100.00;58846.50;6237467;23;20430;-83
2023/11/26 04:27:25;;;;;;;6.95;3.75;;;;;;;-146.61;100.00;58846.50;6216017;23;20020;-84
2023/11/26 04:29:55;;;;;;;6.03;3.30;;;;;;;-146.61;100.00;58846.50;6214033;23;20230;-84
2023/11/26 04:32:21;;;;;;;4.47;3.30;;;;;;;-146.61;100.00;58846.50;6212522;23;20112;-83
2023/11/26 04:34:48;;;;;;;6.97;4.53;;;;;;;-146.61;100.00;58846.50;6236407;23;20032;-83
2023/11/26 04:37:15;;;;;;;3.92;3.50;;;;;;;-146.61;100.00;58846.50;6211728;23;20115;-84
2023/11/26 04:39:42;;;;;;;5.07;4.28;;;;;;;-146.61;100.00;58846.50;6212791;23;20391;-84
2023/11/26 04:42:10;;;;;;;8.18;4.28;;;;;;;-146.61;100.00;58846.50;6212800;23;20028;-83
2023/11/26 04:44:40;;;;;;;10.55;3.80;;;;;;;-146.61;100.00;58846.50;6211960;23;20028;-83
2023/11/26 04:47:07;;;;;;;4.20;3.30;;;;;;;-146.61;100.00;58846.50;6209989;23;20443;-86
2023/11/26 04:49:39;;;;;;;5.72;4.07;;;;;;;-146.61;100.00;58846.50;6213556;23;20410;-83
2023/11/26 04:52:06;;;;;;;6.90;4.00;;;;;;;-146.61;100.00;58846.50;6237656;23;20080;-83
2023/11/26 04:54:35;;;;;;;14.05;4.28;;;;;;;-146.61;100.00;58846.50;6214054;23;20028;-83
2023/11/26 04:57:06;;;;;;;6.82;4.00;;;;;;;-146.61;100.00;58846.50;6212628;23;20021;-84
2023/11/26 04:59:37;;;;;;;6.20;5.03;;;;;;;-146.61;100.00;58846.50;6238590;23;20048;-84
2023/11/26 05:02:10;;;;;;;7.32;4.43;;;;;;;-146.61;100.00;58846.50;6213919;23;20602;-84
2023/11/26 05:04:37;;;;;;;4.55;3.78;;;;;;;-146.61;100.00;58846.50;6216710;23;20020;-83
2023/11/26 05:07:08;;;;;;;6.45;4.03;;;;;;;-146.61;100.00;58846.50;6238841;23;20020;-85
2023/11/26 05:09:39;;;;;;;4.18;3.55;;;;;;;-146.61;100.00;58846.50;6215379;23;20017;-84
2023/11/26 05:12:16;;;;;;;6.95;4.82;;;;;;;-146.61;100.00;58846.50;6215630;23;20080;-84
2023/11/26 05:14:46;;;;;;;6.10;4.30;;;;;;;-146.61;100.00;58846.50;6236613;22;20028;-83
2023/11/26 05:17:13;;;;;;;6.88;4.10;;;;;;;-146.61;100.00;58846.50;6215521;23;20086;-84
2023/11/26 05:19:40;;;;;;;6.18;4.50;;;;;;;-146.61;100.00;58846.50;6213380;23;20032;-82
2023/11/26 05:22:09;;;;;;;5.65;4.20;;;;;;;-146.61;100.00;58846.50;6238205;23;20312;-84
2023/11/26 05:24:41;;;;;;;8.13;4.72;;;;;;;-146.61;100.00;58846.50;6215221;23;20013;-84
2023/11/26 05:27:09;;;;;;;5.35;3.53;;;;;;;-146.61;100.00;58846.50;6237700;23;20020;-83
2023/11/26 05:29:41;;;;;;;4.13;3.58;;;;;;;-146.61;100.00;58846.50;6239573;23;20020;-84
2023/11/26 05:32:11;;;;;;;7.68;3.65;;;;;;;-146.61;100.00;58846.50;6214840;23;20023;-82
2023/11/26 05:34:39;;;;;;;6.70;4.07;;;;;;;-146.61;100.00;58846.50;6237400;23;20232;-85
2023/11/26 05:37:06;;;;;;;9.15;3.60;;;;;;;-146.61;100.00;58846.50;6214069;23;20284;-82
2023/11/26 05:39:40;;;;;;;10.38;3.80;;;;;;;-146.61;100.00;58846.50;6213703;23;20147;-84
2023/11/26 05:42:09;;;;;;;14.23;4.85;;;;;;;-146.61;100.00;58846.50;6212351;23;20040;-83
2023/11/26 05:44:39;;;;;;;4.80;3.65;;;;;;;-146.61;100.00;58846.50;6215478;23;20020;-83
2023/11/26 05:47:07;;;;;;;9.05;3.95;;;;;;;-146.61;100.00;58846.50;6210345;23;20021;-83
2023/11/26 05:49:33;;;;;;;13.77;5.30;;;;;;;-146.61;100.00;58846.50;6213709;23;20232;-86
2023/11/26 05:52:03;;;;;;;8.43;4.40;;;;;;;-146.61;100.00;58846.50;6238237;23;20022;-83
2023/11/26 05:54:30;;;;;;;5.72;5.07;;;;;;;-146.61;100.00;58846.50;6213185;23;20406;-85
2023/11/26 05:56:56;;;;;;;6.22;4.28;;;;;;;-146.61;100.00;58846.50;6210916;23;20413;-83
2023/11/26 05:59:23;;;;;;;5.88;4.32;;;;;;;-146.61;100.00;58846.50;6213253;23;20036;-83
2023/11/26 06:01:50;;;;;;;8.05;6.18;;;;;;;-146.61;100.00;58846.50;6216160;23;20016;-84
2023/11/26 06:04:17;;;;;;;7.55;4.10;;;;;;;-146.61;100.00;58846.50;6239105;23;20024;-82
2023/11/26 06:06:43;;;;;;;6.97;4.35;;;;;;;-146.61;100.00;58846.50;6239138;23;20028;-85
2023/11/26 06:09:12;;;;;;;7.95;5.15;;;;;;;-146.61;100.00;58846.50;6216802;23;20381;-86
2023/11/26 06:11:38;;;;;;;8.75;4.57;;;;;;;-146.61;100.00;58846.50;6240155;23;20023;-84
2023/11/26 06:14:09;;;;;;;5.55;3.95;;;;;;;-146.61;100.00;58846.50;6214271;23;20358;-83
2023/11/26 06:16:37;;;;;;;10.30;4.03;;;;;;;-146.61;100.00;58846.50;6216570;23;20055;-87
2023/11/26 06:19:04;;;;;;;6.55;5.22;;;;;;;-146.61;100.00;58846.50;6214015;23;20024;-85
2023/11/26 06:21:34;;;;;;;9.75;4.80;;;;;;;-146.61;100.00;58846.50;6216688;23;20021;-84
2023/11/26 06:24:01;;;;;;;6.35;3.95;;;;;;;-146.61;100.00;58846.50;6213093;23;20021;-83
2023/11/26 06:26:30;;;;;;;10.60;4.32;;;;;;;-146.61;100.00;58846.50;6214458;23;20032;-84
2023/11/26 06:28:58;;;;;;;8.57;5.35;;;;;;;-146.61;100.00;58846.50;6240630;23;20020;-84
2023/11/26 06:31:30;;;;;;;7.25;4.53;;;;;;;-146.61;100.00;58846.50;6214013;23;20822;-83
2023/11/26 06:33:58;;;;;;;6.93;4.63;;;;;;;-146.61;100.00;58846.50;6238752;23;20096;-83
2023/11/26 06:36:31;;;;;;;8.15;4.30;;;;;;;-146.61;100.00;58846.50;6215288;23;20009;-83
2023/11/26 06:39:03;;;;;;;7.88;5.65;;;;;;;-146.61;100.00;58846.50;6213752;23;20435;-83
2023/11/26 06:41:38;;;;;;;11.43;4.38;;;;;;;-146.61;100.00;58846.50;6211467;23;20046;-83
2023/11/26 06:44:06;;;;;;;8.68;4.40;;;;;;;-146.61;100.00;58846.50;6236344;23;20024;-85
2023/11/26 06:46:34;;;;;;;6.32;4.07;;;;;;;-146.61;100.00;58846.50;6213131;23;20043;-83
2023/11/26 06:49:00;;;;;;;6.28;3.90;;;;;;;-146.61;100.00;58846.50;6211327;23;20028;-83
2023/11/26 06:51:29;;;;;;;6.30;4.85;;;;;;;-146.61;100.00;58846.50;6211656;23;20029;-84
2023/11/26 06:53:56;;;;;;;8.35;4.25;;;;;;;-146.61;100.00;58846.50;6211197;23;20084;-83
2023/11/26 06:56:22;;;;;;;8.23;4.97;;;;;;;-146.61;100.00;58846.50;6212432;23;20398;-83
2023/11/26 06:58:49;;;;;;;12.13;4.53;;;;;;;-146.61;100.00;58846.50;6214386;23;20024;-84
2023/11/26 07:01:16;;;;;;;7.75;4.97;;;;;;;-146.61;100.00;58846.50;6214448;23;20103;-84
2023/11/26 07:03:43;;;;;;;7.10;4.95;;;;;;;-146.61;100.00;58846.50;6238797;23;20056;-84
2023/11/26 07:06:11;;;;;;;10.27;4.13;;;;;;;-146.61;100.00;58846.50;6238310;23;20114;-84
2023/11/26 07:08:41;;;;;;;8.73;4.80;;;;;;;-146.61;100.00;58846.50;6239504;23;20028;-85
2023/11/26 07:11:16;;;;;;;7.18;4.15;;;;;;;-146.61;100.00;58846.50;6238427;23;20024;-84
2023/11/26 07:13:43;;;;;;;7.63;4.53;;;;;;;-146.61;100.00;58846.50;6215625;23;20045;-83
2023/11/26 07:16:11;;;;;;;6.47;4.70;;;;;;;-146.61;100.00;58846.50;6238984;23;20028;-84
2023/11/26 07:18:38;;;;;;;6.55;3.83;;;;;;;-146.61;100.00;58846.50;6210619;23;20051;-82
2023/11/26 07:21:06;;;;;;;9.25;4.30;;;;;;;-146.61;100.00;58846.50;6211122;23;20021;-83
2023/11/26 07:23:36;;;;;;;8.60;5.03;;;;;;;-146.61;100.00;58846.50;6235564;23;20016;-82
2023/11/26 07:26:10;;;;;;;8.35;4.38;;;;;;;-146.61;100.00;58846.50;6210055;23;20016;-83
2023/11/26 07:28:37;;;;;;;;;;;;;;;-146.61;100.00;58846.50;6210390;23;20055;-84
2023/11/26 07:31:17;;;;;;;5.20;4.25;;;;;;;-146.61;100.00;58846.50;6234842;23;19916;-83
2023/11/26 07:33:45;;;;;;;6.53;4.40;;;;;;;-146.61;100.00;58846.50;6207480;23;20017;-83
2023/11/26 07:36:22;;;;;;;7.40;3.88;;;;;;;-146.61;100.00;58846.50;6232391;23;20089;-83
2023/11/26 07:38:48;;;;;;;5.68;3.72;;;;;;;-146.61;100.00;58846.50;6206210;23;20028;-83
2023/11/26 07:41:15;;;;;;;5.78;3.47;;;;;;;-146.61;100.00;58846.50;6207405;23;20020;-84
2023/11/26 07:43:43;;;;;;;7.13;4.47;;;;;;;-146.61;100.00;58846.50;6230476;23;20028;-85
2023/11/26 07:46:11;;;;;;;10.05;4.53;;;;;;;-146.61;100.00;58846.50;6207297;23;20047;-82
2023/11/26 07:48:42;;;;;;;6.93;4.60;;;;;;;-146.61;100.00;58846.50;6206072;23;20420;-83
2023/11/26 07:51:09;;;;;;;7.72;3.30;;;;;;;-146.61;100.00;58846.50;6206076;23;20059;-82
2023/11/26 07:53:37;;;;;;;8.55;5.13;;;;;;;-146.61;100.00;58846.50;6204943;23;20078;-84
2023/11/26 07:56:06;;;;;;;5.22;3.28;;;;;;;-146.61;100.00;58846.50;6231708;23;20029;-82
2023/11/26 07:58:33;;;;;;;3.47;2.67;;;;;;;-146.61;100.00;58846.50;6207849;23;20519;-82
2023/11/26 08:01:07;;;;;;;4.65;2.95;;;;;;;-146.61;100.00;58846.50;6212591;23;20020;-83
2023/11/26 08:03:38;;;;;;;3.95;3.25;;;;;;;-146.61;100.00;58846.50;6234729;23;20072;-82
2023/11/26 08:06:06;;;;;;;4.80;3.13;;;;;;;-146.61;100.00;58846.50;6210420;23;20017;-83
2023/11/26 08:08:36;;;;;;;3.53;2.50;;;;;;;-146.61;100.00;58846.50;6207896;23;20028;-82
2023/11/26 08:11:05;;;;;;;4.00;2.78;;;;;;;-146.61;100.00;58846.50;6232986;23;20021;-83
2023/11/26 08:13:35;;;;;;;4.82;3.33;;;;;;;-146.61;100.00;58846.50;6234226;23;20020;-83
2023/11/26 08:16:07;;;;;;;4.70;2.33;;;;;;;-146.61;100.00;58846.50;6209638;23;20083;-83
2023/11/26 08:18:33;;;;;;;6.95;3.20;;;;;;;-146.61;100.00;58846.50;6234738;23;20028;-83
2023/11/26 08:21:06;;;;;;;13.98;3.38;;;;;;;-146.61;100.00;58846.50;6233953;23;20063;-82
2023/11/26 08:23:33;;;;;;;4.78;2.83;;;;;;;-146.61;100.00;58846.50;6211167;23;20020;-82
2023/11/26 08:26:01;;;;;;;6.38;2.78;;;;;;;-146.61;100.00;58846.50;6209104;23;20023;-83
2023/11/26 08:28:28;;;;;;;4.85;3.03;;;;;;;-146.61;100.00;58846.50;6210245;23;20082;-83
2023/11/26 08:30:58;;;;;;;5.80;3.42;;;;;;;-146.61;100.00;58846.50;6211906;23;20098;-84
2023/11/26 08:33:30;;;;;;;8.70;4.00;;;;;;;-146.61;100.00;58846.50;6210887;23;20683;-84
2023/11/26 08:36:01;;;;;;;3.60;2.95;;;;;;;-146.61;100.00;58846.50;6209911;23;20038;-85
2023/11/26 08:38:31;;;;;;;8.18;3.72;;;;;;;-146.61;100.00;58846.50;6211997;23;20453;-84
2023/11/26 08:41:02;;;;;;;5.18;2.85;;;;;;;-146.61;100.00;58846.50;6209432;23;20034;-84
2023/11/26 08:43:29;;;;;;;6.13;3.00;;;;;;;-146.61;100.00;58846.50;6211377;23;20449;-84
2023/11/26 08:45:56;;;;;;;5.45;2.95;;;;;;;-146.61;100.00;58846.50;6209950;23;20025;-84
2023/11/26 08:48:23;;;;;;;7.78;3.65;;;;;;;-146.61;100.00;58846.50;6210508;23;20048;-83
2023/11/26 08:50:50;;;;;;;6.55;5.13;;;;;;;-146.61;100.00;58846.50;6212245;23;20024;-83
2023/11/26 08:53:17;;;;;;;4.32;3.13;;;;;;;-146.61;100.00;58846.50;6213339;23;20041;-84
2023/11/26 08:55:44;;;;;;;5.22;2.92;;;;;;;-146.61;100.00;58846.50;6212069;23;20397;-84
2023/11/26 08:58:11;;;;;;;5.75;3.05;;;;;;;-146.61;100.00;58846.50;6210476;23;20029;-84
2023/11/26 09:00:38;;;;;;;4.55;3.80;;;;;;;-146.61;100.00;58846.50;6212851;23;20504;-82
2023/11/26 09:03:05;;;;;;;5.57;3.47;;;;;;;-146.61;100.00;58846.50;6210471;23;20480;-82
2023/11/26 09:05:36;;;;;;;11.73;4.28;;;;;;;-146.61;100.00;58846.50;6212409;23;20027;-85
2023/11/26 09:08:04;;;;;;;4.53;3.28;;;;;;;-146.61;100.00;58846.50;6208695;23;20017;-84
2023/11/26 09:10:31;;;;;;;5.22;3.42;;;;;;;-146.61;100.00;58846.50;6235429;23;20024;-82
2023/11/26 09:13:04;;;;;;;4.47;3.33;;;;;;;-146.61;100.00;58846.50;6210189;23;20021;-85
2023/11/26 09:15:36;;;;;;;7.32;3.45;;;;;;;-146.61;100.00;58846.50;6210488;23;20025;-82
2023/11/26 09:18:04;;;;;;;9.70;3.33;;;;;;;-146.61;100.00;58846.50;6214548;23;20024;-85
2023/11/26 09:20:33;;;;;;;6.72;3.83;;;;;;;-146.61;100.00;58846.50;6248476;23;20020;-84
2023/11/26 09:23:07;;;;;;;6.05;3.63;;;;;;;-146.61;100.00;58846.50;6245365;23;20403;-83
2023/11/26 09:25:35;;;;;;;6.63;4.20;;;;;;;-146.61;100.00;58846.50;6220927;23;20059;-82
2023/11/26 09:28:03;;;;;;;6.05;4.22;;;;;;;-146.61;100.00;58846.50;6213954;23;20055;-84
2023/11/26 09:30:30;;;;;;;9.35;3.45;;;;;;;-146.61;100.00;58846.50;6237845;23;20032;-82
2023/11/26 09:32:58;;;;;;;6.20;3.22;;;;;;;-146.61;100.00;58846.50;6211331;23;20040;-85
2023/11/26 09:35:27;;;;;;;4.75;3.80;;;;;;;-146.61;100.00;58846.50;6214768;23;20032;-84
2023/11/26 09:37:58;;;;;;;8.15;5.13;;;;;;;-146.61;100.00;58846.50;6214833;23;20020;-83
2023/11/26 09:40:25;;;;;;;5.45;3.95;;;;;;;-146.61;100.00;58846.50;6207980;23;20031;-81
2023/11/26 09:42:54;;;;;;;5.18;3.90;;;;;;;-146.61;100.00;58846.50;6209523;23;20074;-84
2023/11/26 09:45:21;;;;;;;7.63;4.68;;;;;;;-146.61;100.00;58846.50;6206492;23;20481;-84
2023/11/26 09:47:48;;;;;;;5.80;4.63;;;;;;;-146.61;100.00;58846.50;6205724;23;20035;-84
2023/11/26 09:50:15;;;;;;;8.27;4.90;;;;;;;-146.61;100.00;58846.50;6210164;23;20028;-82
2023/11/26 09:52:45;;;;;;;5.93;4.20;;;;;;;-146.61;100.00;58846.50;6232028;23;20028;-83
2023/11/26 09:55:12;;;;;;;9.77;4.45;;;;;;;-146.61;100.00;58846.50;6206346;23;20024;-85
2023/11/26 09:57:44;;;;;;;4.90;4.03;;;;;;;-146.61;100.00;58846.50;6208852;23;20024;-85
2023/11/26 10:00:12;;;;;;;8.80;4.57;;;;;;;-146.61;100.00;58846.50;6206389;23;20091;-83
2023/11/26 10:02:41;;;;;;;6.97;4.10;;;;;;;-146.61;100.00;58846.50;6206701;23;20111;-84
2023/11/26 10:05:22;;;;;;;7.35;4.20;;;;;;;-146.61;100.00;58846.50;6206797;23;20184;-84
2023/11/26 10:07:54;;;;;;;8.00;4.10;;;;;;;-146.61;100.00;58846.50;6231577;23;20024;-84
2023/11/26 10:10:23;;;;;;;5.75;3.95;;;;;;;-146.61;100.00;58846.50;6206970;23;20024;-85
2023/11/26 10:13:03;;;;;;;10.38;4.88;;;;;;;-146.61;100.00;58846.50;6205396;23;20330;-85
2023/11/26 10:15:34;;;;;;;6.03;2.90;;;;;;;-146.61;100.00;58846.50;6207047;23;20036;-86
2023/11/26 10:18:04;;;;;;;6.57;3.25;;;;;;;-146.61;100.00;58846.50;6206598;23;20020;-84
2023/11/26 10:20:35;;;;;;;4.03;3.00;;;;;;;-146.61;100.00;58846.50;6208595;23;20210;-84
2023/11/26 10:23:03;;;;;;;7.50;3.40;;;;;;;-146.61;100.00;58846.50;6208937;23;20044;-82
2023/11/26 10:25:31;;;;;;;6.05;3.05;;;;;;;-146.61;100.00;58846.50;6207654;23;20036;-84
2023/11/26 10:27:59;;;;;;;6.80;3.35;;;;;;;-146.61;100.00;58846.50;6208042;23;20450;-85
2023/11/26 10:30:44;;;;;;;4.20;2.60;;;;;;;-146.61;100.00;58846.50;6208567;23;20066;-85
2023/11/26 10:33:12;;;;;;;2.95;1.63;;;;;;;-146.61;100.00;58846.50;6207927;23;20020;-85
2023/11/26 10:35:47;;;;;;;2.50;1.38;;;;;;;-146.61;100.00;58846.50;6231050;23;20031;-82
2023/11/26 10:38:15;;;;;;;3.85;1.45;;;;;;;-146.61;100.00;58846.50;6233274;23;20055;-84
2023/11/26 10:40:42;;;;;;;1.88;1.02;;;;;;;-146.61;100.00;58846.50;6234031;23;20075;-83
2023/11/26 10:43:10;;;;;;;3.50;0.93;;;;;;;-146.61;100.00;58846.50;6210299;23;20933;-85
2023/11/26 10:45:38;;;;;;;1.10;0.68;;;;;;;-146.61;100.00;58846.50;6234516;23;20378;-86
2023/11/26 10:48:14;;;;;;;1.63;1.10;;;;;;;-146.61;100.00;58846.50;6208339;23;20126;-85
2023/11/26 10:50:46;;;;;;;5.00;1.27;;;;;;;-146.61;100.00;58846.50;6210589;23;20052;-85
2023/11/26 10:53:23;;;;;;;1.95;1.67;;;;;;;-146.61;100.00;58846.50;6208637;23;20418;-85
2023/11/26 10:55:56;;;;;;;4.88;0.80;;;;;;;-146.61;100.00;58846.50;6211143;23;20028;-83
2023/11/26 10:58:28;;;;;;;2.60;1.48;;;;;;;-146.61;100.00;58846.50;6207959;23;20056;-85
2023/11/26 11:01:00;;;;;;;1.25;0.85;;;;;;;-146.61;100.00;58846.50;6207985;23;20035;-84
2023/11/26 11:03:30;;;;;;;2.15;0.82;;;;;;;-146.61;100.00;58846.50;6232888;23;20016;-84
2023/11/26 11:05:57;;;;;;;6.82;2.63;;;;;;;-146.61;100.00;58846.50;6232099;23;20027;-83
2023/11/26 11:08:25;;;;;;;1.95;1.40;;;;;;;-146.61;100.00;58846.50;6207350;23;20028;-83
2023/11/26 11:11:30;;;;;;;1.10;1.00;;;;;;;-146.61;100.00;58846.50;6214669;23;20028;-84
2023/11/26 11:14:03;;;;;;;3.90;1.20;;;;;;;-146.61;100.00;58846.50;6233608;22;20035;-84
2023/11/26 11:16:34;;;;;;;1.25;0.98;;;;;;;-146.61;100.00;58846.50;6207852;23;20055;-83
2023/11/26 11:19:00;;;;;;;5.00;1.33;;;;;;;-146.61;100.00;58846.50;6206751;23;20078;-84
2023/11/26 11:21:28;;;;;;;1.75;1.65;;;;;;;-146.61;100.00;58846.50;6207472;23;20040;-83